Terminal Aerodrome Forecast
Issued by NWS

Home | Current Version | Previous Version | Graphics & Text | Print | Product List | Glossary On
Versions: 1 2 3 4 5 6 7 8 9 10 11 12 13 14 15 16 17
000
FTUS43 KFGF 252000 AAA
TAFBJI
TAF AMD
KBJI 252016Z 2520/2618 VRB04KT P6SM BKN060
     FM260600 19008KT P6SM -SN OVC018
     FM261200 27012KT P6SM -SN OVC014=

USA.gov is the U.S. government's official web portal to all federal, state and local government web resources and services.